Time;durP1;ratioP1;P1;durP2;ratioP2;P2;SDS_P1;SDS_P2;PMS_P1;PMS_P2;Temp;Humidity;BMP_temperature;BMP_pressure;BME280_temperature;BME280_humidity;BME280_pressure;Samples;Min_cycle;Max_cycle;Signal;HPM_P1;HPM_P2
2021/11/11 00:00:23;;;;;;;13.40;12.70;;;21.00;74.20;;;;;;4935689;29;20494;-53
2021/11/11 00:02:50;;;;;;;13.30;12.70;;;20.90;74.00;;;;;;4936067;29;20450;-53
2021/11/11 00:05:17;;;;;;;14.10;13.50;;;20.80;74.10;;;;;;4935929;29;20936;-52
2021/11/11 00:07:44;;;;;;;14.00;13.50;;;20.80;74.20;;;;;;4935966;29;20461;-55
2021/11/11 00:10:15;;;;;;;13.57;13.03;;;20.80;74.20;;;;;;4935606;29;20528;-53
2021/11/11 00:12:43;;;;;;;13.60;13.07;;;20.70;74.30;;;;;;4935876;29;20912;-55
2021/11/11 00:15:12;;;;;;;14.53;13.93;;;20.60;74.50;;;;;;4935780;29;20780;-56
2021/11/11 00:17:39;;;;;;;13.93;13.40;;;20.60;74.60;;;;;;4935658;29;20458;-56
2021/11/11 00:20:08;;;;;;;13.87;13.27;;;20.50;74.90;;;;;;4935351;29;21039;-57
2021/11/11 00:22:35;;;;;;;13.60;13.10;;;20.30;75.40;;;;;;4935633;29;20449;-57
2021/11/11 00:25:03;;;;;;;13.93;13.30;;;20.20;75.90;;;;;;4935723;29;20932;-51
2021/11/11 00:27:32;;;;;;;13.67;13.10;;;20.20;76.00;;;;;;4935458;29;20932;-52
2021/11/11 00:30:00;;;;;;;13.97;13.40;;;20.10;76.30;;;;;;4935118;29;20935;-51
2021/11/11 00:32:28;;;;;;;13.10;12.70;;;20.10;76.60;;;;;;4935452;29;20791;-52
2021/11/11 00:34:55;;;;;;;14.27;13.67;;;20.00;76.70;;;;;;4935476;29;20450;-51
2021/11/11 00:37:23;;;;;;;14.10;13.57;;;20.00;76.90;;;;;;4935404;29;20448;-55
2021/11/11 00:39:51;;;;;;;13.70;13.10;;;19.90;77.10;;;;;;4934950;29;20593;-53
2021/11/11 00:42:18;;;;;;;14.17;13.67;;;19.90;77.10;;;;;;4935265;29;20954;-51
2021/11/11 00:44:48;;;;;;;13.60;13.00;;;19.90;77.20;;;;;;4935427;29;20485;-53
2021/11/11 00:47:15;;;;;;;13.40;12.90;;;19.80;77.40;;;;;;4935179;29;20450;-54
2021/11/11 00:49:42;;;;;;;13.87;13.27;;;19.80;77.70;;;;;;4934942;29;20453;-54
2021/11/11 00:52:11;;;;;;;13.80;13.30;;;19.70;77.80;;;;;;4936971;29;20465;-56
2021/11/11 00:54:41;;;;;;;13.93;13.33;;;19.70;78.10;;;;;;4954047;28;20491;-56
2021/11/11 00:57:08;;;;;;;14.27;13.67;;;19.60;78.40;;;;;;4954194;29;20833;-52
2021/11/11 00:59:35;;;;;;;13.90;13.40;;;19.50;78.60;;;;;;4953893;29;20507;-56
2021/11/11 01:02:08;;;;;;;13.10;12.70;;;19.50;78.90;;;;;;4954074;28;20922;-52
2021/11/11 01:04:35;;;;;;;14.43;13.63;;;19.40;79.30;;;;;;4954182;29;20800;-51
2021/11/11 01:07:02;;;;;;;13.40;12.90;;;19.40;79.70;;;;;;4954050;29;20453;-53
2021/11/11 01:09:30;;;;;;;12.70;12.20;;;19.30;79.70;;;;;;4953721;29;20935;-52
2021/11/11 01:11:58;;;;;;;13.20;12.70;;;19.30;80.10;;;;;;4953883;28;20480;-53
2021/11/11 01:14:25;;;;;;;14.10;13.50;;;19.20;80.20;;;;;;4954027;29;20449;-51
2021/11/11 01:16:53;;;;;;;15.40;14.80;;;19.10;80.50;;;;;;4953860;29;20455;-55
2021/11/11 01:19:22;;;;;;;13.80;13.30;;;19.10;80.80;;;;;;4953641;29;20492;-53
2021/11/11 01:21:50;;;;;;;14.47;13.80;;;19.10;81.00;;;;;;4953721;28;20560;-55
2021/11/11 01:24:18;;;;;;;14.13;13.63;;;19.00;81.70;;;;;;4953699;29;20820;-52
2021/11/11 01:26:45;;;;;;;13.57;13.07;;;18.90;82.40;;;;;;4953785;29;20455;-54
2021/11/11 01:29:13;;;;;;;13.97;13.37;;;18.70;82.90;;;;;;4953431;29;20540;-53
2021/11/11 01:31:40;;;;;;;13.27;12.77;;;18.80;83.40;;;;;;4953439;28;20480;-55
2021/11/11 01:34:07;;;;;;;14.20;13.60;;;18.80;83.80;;;;;;4953665;28;20453;-55
2021/11/11 01:36:36;;;;;;;13.77;13.17;;;18.80;84.10;;;;;;4953585;29;20453;-55
2021/11/11 01:39:06;;;;;;;13.93;13.43;;;18.70;84.50;;;;;;4953427;29;20488;-55
2021/11/11 01:41:33;;;;;;;13.23;12.83;;;18.70;84.70;;;;;;4953521;28;20468;-55
2021/11/11 01:44:00;;;;;;;13.47;12.73;;;18.60;85.10;;;;;;4953549;29;20862;-56
2021/11/11 01:46:27;;;;;;;13.33;12.77;;;18.60;85.40;;;;;;4953511;29;20456;-51
2021/11/11 01:48:55;;;;;;;13.13;12.73;;;18.50;85.60;;;;;;4953342;29;20507;-54
2021/11/11 01:51:23;;;;;;;13.90;13.37;;;18.50;85.70;;;;;;4953254;28;20472;-55
2021/11/11 01:53:52;;;;;;;13.13;12.67;;;18.50;86.00;;;;;;4953513;29;20452;-52
2021/11/11 01:56:22;;;;;;;13.50;12.87;;;18.50;86.50;;;;;;4953390;29;20452;-52
2021/11/11 01:58:49;;;;;;;12.57;12.17;;;18.40;86.60;;;;;;4953206;29;20500;-51
2021/11/11 02:01:16;;;;;;;13.60;13.00;;;18.40;86.90;;;;;;4953272;28;20985;-53
2021/11/11 02:03:43;;;;;;;13.10;12.50;;;18.40;86.90;;;;;;4953299;29;20445;-52
2021/11/11 02:06:10;;;;;;;13.70;13.20;;;18.40;87.00;;;;;;4954221;28;20444;-51
2021/11/11 02:08:36;;;;;;;13.70;13.03;;;18.40;87.00;;;;;;4957111;29;20444;-56
2021/11/11 02:11:05;;;;;;;12.33;11.93;;;18.40;87.40;;;;;;4957042;28;20966;-53
2021/11/11 02:13:31;;;;;;;13.50;13.00;;;18.40;87.60;;;;;;4957054;29;20444;-52
2021/11/11 02:15:59;;;;;;;13.57;12.97;;;18.30;87.80;;;;;;4957073;29;20445;-55
2021/11/11 02:18:26;;;;;;;12.80;12.40;;;18.30;87.90;;;;;;4957126;29;20464;-57
2021/11/11 02:20:54;;;;;;;13.23;12.73;;;18.30;88.10;;;;;;4956842;28;20499;-52
2021/11/11 02:23:21;;;;;;;13.30;12.80;;;18.30;88.30;;;;;;4957096;29;20453;-53
2021/11/11 02:25:48;;;;;;;13.50;12.80;;;18.30;88.60;;;;;;4956861;29;20492;-52
2021/11/11 02:28:17;;;;;;;13.80;13.23;;;18.30;88.60;;;;;;4956960;29;20449;-51
2021/11/11 02:30:46;;;;;;;13.33;12.53;;;18.30;88.70;;;;;;4956982;28;20472;-55
2021/11/11 02:33:15;;;;;;;13.43;12.93;;;18.20;89.30;;;;;;4956770;29;20459;-54
2021/11/11 02:35:42;;;;;;;12.80;12.40;;;18.20;89.20;;;;;;4956713;29;20949;-53
2021/11/11 02:38:12;;;;;;;13.87;13.30;;;18.20;89.70;;;;;;4956683;29;20460;-51
2021/11/11 02:40:39;;;;;;;13.10;12.60;;;18.20;89.50;;;;;;4956245;28;21008;-51
2021/11/11 02:43:07;;;;;;;14.03;13.43;;;18.20;89.70;;;;;;4956579;29;20971;-51
2021/11/11 02:45:38;;;;;;;13.23;12.80;;;18.20;89.60;;;;;;4956556;29;20811;-58
2021/11/11 02:48:07;;;;;;;13.30;12.80;;;18.10;90.00;;;;;;4956720;29;20451;-56
2021/11/11 02:50:35;;;;;;;13.60;13.00;;;18.10;90.10;;;;;;4956220;28;20471;-50
2021/11/11 02:53:03;;;;;;;13.37;12.83;;;18.10;90.60;;;;;;4956446;29;20815;-53
2021/11/11 02:55:32;;;;;;;13.17;12.67;;;18.10;90.30;;;;;;4956364;29;20846;-55
2021/11/11 02:58:00;;;;;;;13.47;12.97;;;18.10;90.30;;;;;;4956434;29;20452;-56
2021/11/11 03:00:30;;;;;;;13.73;13.13;;;18.00;90.40;;;;;;4955997;28;20488;-51
2021/11/11 03:02:57;;;;;;;12.20;11.70;;;18.00;90.50;;;;;;4956197;29;20452;-52
2021/11/11 03:05:26;;;;;;;13.47;12.97;;;18.10;90.60;;;;;;4956225;29;20959;-50
2021/11/11 03:07:53;;;;;;;14.03;13.43;;;18.10;90.60;;;;;;4956086;29;20455;-53
2021/11/11 03:10:22;;;;;;;13.33;12.73;;;18.00;90.80;;;;;;4955926;28;20491;-50
2021/11/11 03:12:51;;;;;;;12.43;12.03;;;18.10;90.90;;;;;;4955963;29;20445;-53
2021/11/11 03:15:19;;;;;;;12.70;12.30;;;18.00;91.10;;;;;;4956074;28;20818;-50
2021/11/11 03:17:47;;;;;;;12.80;12.40;;;18.00;91.20;;;;;;4955923;28;20448;-53
2021/11/11 03:20:15;;;;;;;12.83;12.33;;;17.90;91.30;;;;;;4955582;28;20488;-50
2021/11/11 03:22:43;;;;;;;14.10;13.50;;;18.00;91.40;;;;;;4955903;29;20483;-54
2021/11/11 03:25:11;;;;;;;13.37;12.87;;;18.00;91.40;;;;;;4956072;28;20476;-51
2021/11/11 03:27:38;;;;;;;13.30;12.83;;;17.90;91.40;;;;;;4955897;29;20456;-53
2021/11/11 03:30:09;;;;;;;12.60;12.20;;;17.90;91.60;;;;;;4955403;28;20538;-57
2021/11/11 03:32:36;;;;;;;12.80;12.40;;;17.90;91.50;;;;;;4955768;29;20938;-54
2021/11/11 03:35:04;;;;;;;12.10;11.70;;;17.90;91.80;;;;;;4955633;29;20484;-53
2021/11/11 03:37:31;;;;;;;13.00;12.60;;;17.90;92.00;;;;;;4955642;29;21032;-52
2021/11/11 03:39:57;;;;;;;13.20;12.70;;;17.90;92.20;;;;;;4955223;28;20507;-56
2021/11/11 03:42:24;;;;;;;12.43;12.03;;;17.90;92.20;;;;;;4955564;29;20943;-53
2021/11/11 03:44:51;;;;;;;13.27;12.77;;;17.90;92.20;;;;;;4955751;29;20453;-52
2021/11/11 03:47:20;;;;;;;12.90;12.50;;;17.90;92.40;;;;;;4955439;29;20453;-51
2021/11/11 03:49:47;;;;;;;12.20;11.80;;;17.90;92.30;;;;;;4955201;28;20480;-57
2021/11/11 03:52:14;;;;;;;13.40;12.90;;;17.80;92.50;;;;;;4955411;29;20459;-52
2021/11/11 03:54:41;;;;;;;13.23;12.73;;;17.90;92.60;;;;;;4955594;29;20453;-53
2021/11/11 03:57:08;;;;;;;12.93;12.43;;;17.90;92.60;;;;;;4955491;29;20468;-50
2021/11/11 03:59:36;;;;;;;13.60;13.10;;;17.80;93.00;;;;;;4954998;29;20839;-56
2021/11/11 04:02:04;;;;;;;13.80;13.30;;;17.80;93.40;;;;;;4955191;28;20512;-50
2021/11/11 04:04:32;;;;;;;12.50;12.10;;;17.80;93.60;;;;;;4955193;28;20943;-53
2021/11/11 04:06:59;;;;;;;12.97;12.57;;;17.80;93.60;;;;;;4955334;29;20804;-56
2021/11/11 04:09:25;;;;;;;13.50;13.00;;;17.80;93.70;;;;;;4954871;29;20453;-52
2021/11/11 04:11:52;;;;;;;12.67;12.27;;;17.60;94.10;;;;;;4954791;28;20476;-57
2021/11/11 04:14:19;;;;;;;13.10;12.60;;;17.70;94.30;;;;;;4955263;28;20476;-54
2021/11/11 04:16:47;;;;;;;12.63;12.13;;;17.70;94.50;;;;;;4954998;29;20452;-51
2021/11/11 04:19:14;;;;;;;13.20;12.67;;;17.70;94.80;;;;;;4954694;29;20455;-51
2021/11/11 04:21:43;;;;;;;13.07;12.57;;;17.70;94.90;;;;;;4954777;28;20994;-50
2021/11/11 04:24:11;;;;;;;13.07;12.57;;;17.70;95.10;;;;;;4954810;29;20460;-54
2021/11/11 04:26:44;;;;;;;13.07;12.57;;;17.70;95.20;;;;;;4954871;29;20447;-50
2021/11/11 04:29:15;;;;;;;12.50;12.00;;;17.60;95.40;;;;;;4953990;28;20476;-54
2021/11/11 04:31:46;;;;;;;13.07;12.57;;;17.70;95.20;;;;;;4954557;28;20560;-54
2021/11/11 04:34:14;;;;;;;12.00;11.50;;;17.70;95.40;;;;;;4954663;29;20894;-55
2021/11/11 04:37:09;;;;;;;12.03;11.63;;;17.60;95.40;;;;;;4954573;29;20456;-56
2021/11/11 04:40:04;;;;;;;13.43;12.97;;;17.60;95.70;;;;;;4954352;29;20452;-51
2021/11/11 04:59:48;;;;;;;13.17;12.77;;;17.70;96.10;;;;;;5129760;28;20408;-53
2021/11/11 05:05:05;;;;;;;13.40;12.80;;;17.70;96.30;;;;;;5098810;28;20448;-53
2021/11/11 05:07:32;;;;;;;13.40;13.00;;;17.60;96.50;;;;;;5109152;28;20943;-50
2021/11/11 05:10:00;;;;;;;13.80;13.30;;;17.70;96.40;;;;;;5108753;28;20792;-50
2021/11/11 05:12:27;;;;;;;13.20;12.70;;;17.60;96.50;;;;;;5109212;28;20845;-50
2021/11/11 05:14:53;;;;;;;14.07;13.57;;;17.60;97.10;;;;;;5109073;28;20472;-53
2021/11/11 05:17:24;;;;;;;13.50;13.10;;;17.50;97.00;;;;;;5109066;28;20446;-52
2021/11/11 05:19:51;;;;;;;13.40;13.00;;;17.50;97.20;;;;;;5108580;28;20532;-56
2021/11/11 05:22:18;;;;;;;13.60;13.10;;;17.60;97.20;;;;;;5108965;28;20541;-55
2021/11/11 05:24:45;;;;;;;14.07;13.53;;;17.50;97.10;;;;;;5108809;28;20446;-51
2021/11/11 05:27:14;;;;;;;13.70;13.20;;;17.50;97.00;;;;;;5108653;28;20442;-49
2021/11/11 05:29:41;;;;;;;13.73;13.23;;;17.50;97.20;;;;;;5108410;28;20541;-55
2021/11/11 05:32:08;;;;;;;13.60;13.10;;;17.50;97.30;;;;;;5108651;28;20485;-56
2021/11/11 05:34:35;;;;;;;12.73;12.23;;;17.50;97.40;;;;;;5108622;28;20854;-54
2021/11/11 05:37:02;;;;;;;13.20;12.70;;;17.50;97.40;;;;;;5108485;28;20445;-57
2021/11/11 05:39:29;;;;;;;14.10;13.50;;;17.60;97.30;;;;;;5108329;28;20446;-53
2021/11/11 05:41:56;;;;;;;13.27;12.77;;;17.60;97.60;;;;;;5108427;28;20466;-50
2021/11/11 05:44:24;;;;;;;14.03;13.53;;;17.60;97.30;;;;;;5108449;28;20449;-49
2021/11/11 05:46:52;;;;;;;13.37;12.90;;;17.60;97.40;;;;;;5108380;28;20520;-51
2021/11/11 05:49:19;;;;;;;13.17;12.67;;;17.50;97.30;;;;;;5102509;28;20799;-49
2021/11/11 05:51:46;;;;;;;13.57;13.07;;;18.00;97.90;;;;;;5095963;28;20830;-48
2021/11/11 05:54:13;;;;;;;14.67;14.10;;;19.70;94.20;;;;;;5096200;28;20812;-48
2021/11/11 05:56:39;;;;;;;14.50;13.90;;;20.90;89.60;;;;;;5096222;28;20456;-47
2021/11/11 05:59:06;;;;;;;14.10;13.60;;;21.30;84.30;;;;;;5095843;28;20446;-49
2021/11/11 06:01:35;;;;;;;13.70;13.20;;;21.80;81.30;;;;;;5095859;28;20543;-50
2021/11/11 06:04:02;;;;;;;14.70;14.20;;;22.50;76.20;;;;;;5090620;28;20469;-47
2021/11/11 06:06:28;;;;;;;14.23;13.73;;;22.90;72.30;;;;;;5082778;28;20461;-48
2021/11/11 06:08:55;;;;;;;15.60;14.97;;;23.00;69.80;;;;;;5082077;28;20491;-49
2021/11/11 06:11:22;;;;;;;15.60;14.80;;;23.10;68.10;;;;;;5082243;28;20540;-50
2021/11/11 06:13:49;;;;;;;13.97;13.43;;;23.10;66.70;;;;;;5082051;28;20913;-49
2021/11/11 06:16:16;;;;;;;15.63;15.13;;;23.20;65.90;;;;;;5082093;28;20920;-48
2021/11/11 06:18:44;;;;;;;14.73;14.20;;;23.20;65.30;;;;;;5081949;28;20857;-47
2021/11/11 06:21:11;;;;;;;15.80;15.13;;;23.20;64.60;;;;;;5081960;28;20473;-48
2021/11/11 06:23:38;;;;;;;13.33;12.83;;;23.80;63.40;;;;;;5081991;28;20858;-48
2021/11/11 06:26:05;;;;;;;13.27;12.77;;;24.30;60.70;;;;;;5082102;28;20457;-47
2021/11/11 06:28:32;;;;;;;13.20;12.80;;;24.50;59.00;;;;;;5081845;28;20453;-50
2021/11/11 06:30:59;;;;;;;13.00;12.50;;;24.50;58.30;;;;;;5081893;28;20873;-49
2021/11/11 06:33:26;;;;;;;12.87;12.47;;;24.50;57.90;;;;;;5082010;28;20917;-50
2021/11/11 06:35:54;;;;;;;13.40;12.90;;;24.50;58.00;;;;;;5081715;28;20458;-47
2021/11/11 06:38:20;;;;;;;12.30;11.90;;;24.40;57.70;;;;;;5081726;28;20446;-46
2021/11/11 06:40:50;;;;;;;12.47;12.07;;;24.40;57.90;;;;;;5081568;28;21097;-50
2021/11/11 06:43:17;;;;;;;13.70;13.30;;;24.60;57.90;;;;;;5081581;28;20456;-49
2021/11/11 06:45:44;;;;;;;13.17;12.67;;;25.00;57.40;;;;;;5081540;28;20450;-48
2021/11/11 06:48:11;;;;;;;13.23;12.73;;;25.40;56.20;;;;;;5081435;28;20454;-49
2021/11/11 06:50:39;;;;;;;14.60;14.00;;;25.60;55.50;;;;;;5081219;28;20921;-47
2021/11/11 06:53:08;;;;;;;13.93;13.53;;;25.50;55.10;;;;;;5081384;28;20486;-46
2021/11/11 06:55:35;;;;;;;14.23;13.67;;;25.50;54.90;;;;;;5081446;28;20832;-50
2021/11/11 06:58:02;;;;;;;15.10;14.50;;;25.50;54.90;;;;;;5081140;28;20484;-50
2021/11/11 07:00:33;;;;;;;15.13;14.53;;;25.40;54.80;;;;;;5081202;28;20937;-48
2021/11/11 07:02:59;;;;;;;15.10;14.60;;;25.40;54.80;;;;;;5081443;28;20454;-47
2021/11/11 07:05:26;;;;;;;15.00;14.50;;;25.60;55.20;;;;;;5081213;28;20995;-55
2021/11/11 07:07:53;;;;;;;15.40;14.90;;;25.60;53.70;;;;;;5081070;28;20446;-60
2021/11/11 07:10:21;;;;;;;15.30;14.70;;;25.50;53.50;;;;;;5080843;28;20877;-56
2021/11/11 07:12:48;;;;;;;14.43;14.03;;;25.40;53.40;;;;;;5081233;28;20481;-55
2021/11/11 07:15:17;;;;;;;17.07;16.47;;;25.40;53.20;;;;;;5080484;28;20443;-57
2021/11/11 07:17:44;;;;;;;15.30;14.80;;;25.30;53.10;;;;;;5080927;28;20455;-56
2021/11/11 07:20:12;;;;;;;14.70;14.30;;;25.30;53.10;;;;;;5080584;28;20831;-60
2021/11/11 07:22:42;;;;;;;15.30;14.80;;;25.20;53.20;;;;;;5080970;28;21015;-56
2021/11/11 07:25:10;;;;;;;14.63;14.13;;;25.10;53.30;;;;;;5080881;28;20453;-50
2021/11/11 07:27:39;;;;;;;14.80;14.30;;;25.00;53.20;;;;;;5080762;28;20438;-49
2021/11/11 07:30:09;;;;;;;13.83;13.23;;;25.00;53.40;;;;;;5080429;28;20980;-50
2021/11/11 07:32:35;;;;;;;15.47;14.90;;;25.00;53.30;;;;;;5080637;28;20821;-50
2021/11/11 07:35:03;;;;;;;15.37;14.77;;;25.00;53.30;;;;;;5080805;28;20442;-51
2021/11/11 07:37:29;;;;;;;15.43;14.80;;;25.00;53.30;;;;;;5080529;28;20449;-58
2021/11/11 07:39:56;;;;;;;14.93;14.43;;;25.00;53.10;;;;;;5080239;28;21298;-57
2021/11/11 07:42:25;;;;;;;15.70;15.20;;;25.00;53.00;;;;;;5080573;28;20519;-49
2021/11/11 07:44:53;;;;;;;15.27;14.57;;;25.10;53.00;;;;;;5080430;28;20489;-48
2021/11/11 07:47:27;;;;;;;16.17;15.23;;;25.00;51.70;;;;;;5080415;28;20449;-50
2021/11/11 07:49:54;;;;;;;15.93;15.13;;;24.90;50.20;;;;;;5080128;28;20477;-56
2021/11/11 07:52:21;;;;;;;14.80;14.20;;;24.90;49.60;;;;;;5080250;28;20480;-50
2021/11/11 07:54:48;;;;;;;15.90;15.30;;;25.00;50.20;;;;;;5080218;28;20478;-58
2021/11/11 07:57:15;;;;;;;14.83;14.33;;;25.20;50.50;;;;;;5080249;28;20451;-56
2021/11/11 07:59:42;;;;;;;15.40;14.80;;;25.40;50.30;;;;;;5079924;28;20866;-57
2021/11/11 08:02:10;;;;;;;15.33;14.73;;;25.40;50.20;;;;;;5080374;28;20470;-57
2021/11/11 08:04:37;;;;;;;16.47;15.80;;;25.50;50.30;;;;;;5080067;28;20918;-57
2021/11/11 08:07:04;;;;;;;16.93;16.23;;;25.50;50.20;;;;;;5080092;28;20451;-55
2021/11/11 08:09:31;;;;;;;16.00;15.10;;;25.40;50.20;;;;;;5080000;28;20802;-50
2021/11/11 08:11:58;;;;;;;15.83;15.07;;;25.30;50.30;;;;;;5080288;28;20474;-47
2021/11/11 08:14:25;;;;;;;15.37;14.77;;;25.40;50.70;;;;;;5079882;28;20944;-50
2021/11/11 08:16:52;;;;;;;15.30;14.80;;;25.60;50.40;;;;;;5079966;28;20963;-51
2021/11/11 08:19:21;;;;;;;15.63;15.03;;;25.70;50.20;;;;;;5079685;28;20481;-57
2021/11/11 08:21:48;;;;;;;15.77;15.17;;;25.70;50.00;;;;;;5079775;28;20474;-50
2021/11/11 08:24:15;;;;;;;15.27;14.57;;;25.70;49.80;;;;;;5079987;28;20454;-55
2021/11/11 08:26:42;;;;;;;15.07;14.50;;;25.70;50.40;;;;;;5079621;28;20458;-47
2021/11/11 08:29:09;;;;;;;15.40;14.80;;;25.70;50.00;;;;;;5079550;28;20825;-49
2021/11/11 08:31:36;;;;;;;15.13;14.63;;;25.70;50.00;;;;;;5079749;28;20462;-46
2021/11/11 08:34:03;;;;;;;15.87;15.27;;;25.70;49.90;;;;;;5079601;28;20844;-50
2021/11/11 08:36:31;;;;;;;15.17;14.67;;;25.60;50.00;;;;;;5079611;28;20446;-59
2021/11/11 08:38:59;;;;;;;16.07;15.47;;;25.60;50.70;;;;;;5079477;28;20446;-52
2021/11/11 08:41:26;;;;;;;15.80;15.20;;;25.50;50.10;;;;;;5079177;28;20466;-52
2021/11/11 08:43:54;;;;;;;16.73;16.13;;;25.60;50.10;;;;;;5079445;28;20442;-52
2021/11/11 08:46:21;;;;;;;16.50;15.87;;;25.70;50.00;;;;;;5079577;28;20454;-50
2021/11/11 08:48:48;;;;;;;16.30;15.70;;;25.70;49.90;;;;;;5079466;28;20450;-51
2021/11/11 08:51:15;;;;;;;16.00;15.33;;;25.70;49.90;;;;;;5079484;28;20466;-50
2021/11/11 08:53:43;;;;;;;16.80;16.10;;;25.70;49.70;;;;;;5079319;28;20482;-54
2021/11/11 08:56:10;;;;;;;17.30;16.53;;;25.60;50.10;;;;;;5079474;28;20560;-52
2021/11/11 08:58:38;;;;;;;17.97;17.07;;;25.50;50.90;;;;;;5079421;28;20447;-52
2021/11/11 09:01:06;;;;;;;16.53;15.90;;;25.50;52.10;;;;;;5079332;28;20477;-54
2021/11/11 09:03:35;;;;;;;17.50;16.60;;;25.40;53.60;;;;;;5079335;28;20883;-48
2021/11/11 09:06:02;;;;;;;18.07;16.87;;;25.50;54.50;;;;;;5079312;28;20454;-50
2021/11/11 09:08:29;;;;;;;17.80;16.63;;;25.50;55.30;;;;;;5079410;28;20840;-50
2021/11/11 09:10:58;;;;;;;18.17;17.27;;;25.60;56.40;;;;;;5078947;28;20535;-51
2021/11/11 09:13:26;;;;;;;17.60;16.30;;;25.70;58.20;;;;;;5079227;28;20485;-55
2021/11/11 09:15:54;;;;;;;20.17;18.77;;;25.80;59.10;;;;;;5079467;28;20910;-52
2021/11/11 09:18:20;;;;;;;18.97;17.77;;;25.80;59.70;;;;;;5079276;28;20472;-51
2021/11/11 09:20:47;;;;;;;19.10;17.90;;;25.80;60.50;;;;;;5079107;28;20477;-50
2021/11/11 09:23:14;;;;;;;22.00;20.37;;;25.80;60.30;;;;;;5079258;28;20450;-46
2021/11/11 09:25:41;;;;;;;18.60;17.70;;;25.90;60.20;;;;;;5079015;28;20535;-47
2021/11/11 09:28:10;;;;;;;21.20;19.27;;;25.90;59.90;;;;;;5079228;28;20474;-51
2021/11/11 09:30:38;;;;;;;19.50;17.97;;;25.90;60.00;;;;;;5078898;28;21004;-49
2021/11/11 09:33:06;;;;;;;20.27;18.40;;;25.90;59.80;;;;;;5079084;28;20457;-50
2021/11/11 09:35:33;;;;;;;19.27;17.73;;;25.90;59.50;;;;;;5079182;28;20457;-47
2021/11/11 09:38:01;;;;;;;18.20;17.07;;;26.00;59.30;;;;;;5079018;28;20449;-50
2021/11/11 09:40:29;;;;;;;18.50;17.40;;;26.00;59.10;;;;;;5082068;28;20541;-51
2021/11/11 09:42:57;;;;;;;17.97;16.73;;;26.00;59.10;;;;;;5082938;28;20446;-50
2021/11/11 09:45:28;;;;;;;18.63;17.37;;;26.00;58.80;;;;;;5082774;28;20450;-47
2021/11/11 09:47:56;;;;;;;19.13;18.10;;;26.00;58.50;;;;;;5082744;28;20932;-50
2021/11/11 09:50:25;;;;;;;18.73;17.53;;;26.10;58.40;;;;;;5082437;28;20458;-49
2021/11/11 09:52:52;;;;;;;17.83;16.87;;;26.00;58.00;;;;;;5082672;28;20515;-50
2021/11/11 10:00:53;;;;;;;17.07;16.17;;;25.90;57.60;;;;;;5082248;28;20453;-50
2021/11/11 10:03:21;;;;;;;18.37;17.30;;;25.80;57.80;;;;;;5082342;28;20751;-46
2021/11/11 10:05:48;;;;;;;18.83;17.53;;;25.70;57.70;;;;;;5082632;28;20454;-47
2021/11/11 10:08:34;;;;;;;18.27;17.20;;;25.60;57.80;;;;;;5082224;28;21030;-51
2021/11/11 10:11:01;;;;;;;17.63;16.47;;;25.50;57.80;;;;;;5082172;28;20480;-54
2021/11/11 10:13:29;;;;;;;19.10;17.97;;;25.40;57.70;;;;;;5091386;28;20680;-48
2021/11/11 10:16:06;;;;;;;19.63;18.63;;;25.30;57.90;;;;;;5094286;28;20458;-49
2021/11/11 10:18:43;;;;;;;18.30;17.30;;;25.40;57.70;;;;;;5094094;28;20450;-49
2021/11/11 10:21:37;;;;;;;18.20;17.00;;;25.30;57.10;;;;;;5094133;28;20465;-48
2021/11/11 10:24:25;;;;;;;18.20;17.03;;;25.20;56.90;;;;;;5094161;28;20445;-48
2021/11/11 10:26:56;;;;;;;18.37;17.20;;;25.10;56.80;;;;;;5094059;28;20532;-47
2021/11/11 10:29:30;;;;;;;17.87;16.60;;;25.00;57.00;;;;;;5093929;28;21011;-46
2021/11/11 10:32:03;;;;;;;19.43;18.30;;;24.90;57.00;;;;;;5093971;28;20462;-49
2021/11/11 10:34:30;;;;;;;18.00;16.90;;;24.80;57.00;;;;;;5093940;28;20938;-51
2021/11/11 10:36:57;;;;;;;18.20;17.20;;;24.80;57.00;;;;;;5093937;28;20438;-46
2021/11/11 10:39:26;;;;;;;17.57;16.77;;;24.90;57.00;;;;;;5093680;28;20446;-54
2021/11/11 10:41:55;;;;;;;18.27;17.27;;;24.90;56.90;;;;;;5093662;28;20475;-46
2021/11/11 10:44:26;;;;;;;19.17;17.93;;;25.30;56.50;;;;;;5093749;28;20443;-50
2021/11/11 10:46:55;;;;;;;17.63;16.73;;;25.80;55.50;;;;;;5093698;28;20853;-46
2021/11/11 10:49:27;;;;;;;17.90;16.80;;;26.20;54.50;;;;;;5093455;28;20446;-47
2021/11/11 10:51:55;;;;;;;19.10;18.00;;;26.50;53.60;;;;;;5093410;28;20462;-45
2021/11/11 10:54:22;;;;;;;18.33;17.17;;;26.70;53.00;;;;;;5093416;28;20478;-50
2021/11/11 10:56:50;;;;;;;20.17;19.07;;;26.70;52.70;;;;;;5093603;28;20442;-50
2021/11/11 10:59:18;;;;;;;17.90;17.10;;;26.60;52.40;;;;;;5093305;28;20450;-51
2021/11/11 11:02:00;;;;;;;18.77;17.73;;;26.60;52.30;;;;;;5093296;28;20485;-48
2021/11/11 11:04:32;;;;;;;19.17;18.17;;;26.60;52.20;;;;;;5093846;28;20829;-48
2021/11/11 11:07:16;;;;;;;19.33;18.23;;;26.50;52.10;;;;;;5093216;28;20983;-48
2021/11/11 11:09:43;;;;;;;18.87;17.97;;;26.50;52.00;;;;;;5093174;28;20856;-48
2021/11/11 11:12:30;;;;;;;17.53;16.53;;;26.50;52.00;;;;;;5092931;28;20474;-48
2021/11/11 11:14:56;;;;;;;17.83;17.03;;;26.40;52.10;;;;;;5092968;28;20489;-53
2021/11/11 11:17:23;;;;;;;19.67;18.67;;;26.30;52.10;;;;;;5093118;28;20446;-49
2021/11/11 11:20:11;;;;;;;18.87;18.07;;;26.30;52.20;;;;;;5092723;28;20989;-48
2021/11/11 11:22:38;;;;;;;18.63;17.63;;;26.20;52.00;;;;;;5092769;28;20944;-49
2021/11/11 11:25:06;;;;;;;18.30;17.40;;;26.10;52.20;;;;;;5093024;28;20443;-49
2021/11/11 11:27:35;;;;;;;17.90;17.00;;;26.00;52.20;;;;;;5092894;28;20449;-48
2021/11/11 11:30:10;;;;;;;18.63;17.83;;;25.90;52.30;;;;;;5092561;28;20455;-48
2021/11/11 11:32:41;;;;;;;17.07;16.10;;;25.90;52.30;;;;;;5092881;28;20476;-53
2021/11/11 11:35:10;;;;;;;16.97;16.17;;;26.10;52.10;;;;;;5092917;28;20569;-49
2021/11/11 11:37:38;;;;;;;18.67;17.87;;;25.90;52.10;;;;;;5092632;28;20938;-48
2021/11/11 11:40:08;;;;;;;17.33;16.40;;;25.70;52.30;;;;;;5092525;28;20446;-52
2021/11/11 11:42:39;;;;;;;17.77;16.97;;;25.70;52.40;;;;;;5092717;28;20457;-51
2021/11/11 11:45:08;;;;;;;18.47;17.47;;;25.70;52.30;;;;;;5092593;28;20439;-53
2021/11/11 11:47:39;;;;;;;17.73;16.93;;;26.00;52.20;;;;;;5092605;28;20518;-50
2021/11/11 11:50:12;;;;;;;17.33;16.53;;;26.20;51.60;;;;;;5092346;28;20446;-48
2021/11/11 11:52:43;;;;;;;18.13;17.20;;;26.40;51.20;;;;;;5092376;28;20454;-51
2021/11/11 11:55:14;;;;;;;18.97;18.10;;;26.90;50.70;;;;;;5092312;28;20485;-48
2021/11/11 11:57:55;;;;;;;19.90;19.00;;;27.50;49.70;;;;;;5092369;28;20451;-49
2021/11/11 12:00:39;;;;;;;18.57;17.50;;;28.00;48.80;;;;;;5092178;28;21036;-55
2021/11/11 12:09:10;;;;;;;20.20;19.20;;;28.50;47.00;;;;;;5092212;28;20418;-54
2021/11/11 12:11:55;;;;;;;19.33;18.33;;;28.50;46.90;;;;;;5092049;28;20470;-50
2021/11/11 12:14:26;;;;;;;19.60;18.70;;;28.70;46.60;;;;;;5092122;28;21004;-53
2021/11/11 12:17:26;;;;;;;18.70;17.80;;;28.80;46.20;;;;;;5092055;28;20446;-53
2021/11/11 12:39:52;;;;;;;18.67;17.73;;;28.40;45.80;;;;;;5091570;28;20421;-46
2021/11/11 12:42:30;;;;;;;18.90;17.90;;;28.20;46.50;;;;;;5091723;28;20537;-49
2021/11/11 12:45:13;;;;;;;21.13;20.03;;;27.90;46.60;;;;;;5091807;28;20542;-50
2021/11/11 12:47:45;;;;;;;20.23;19.13;;;27.60;47.10;;;;;;5091667;28;20818;-55
2021/11/11 12:50:30;;;;;;;20.10;19.00;;;27.50;47.50;;;;;;5091378;28;20505;-55
2021/11/11 12:53:32;;;;;;;19.13;18.23;;;27.40;47.60;;;;;;5091393;28;20826;-52
2021/11/11 12:56:36;;;;;;;19.67;18.57;;;27.20;47.90;;;;;;5091441;28;20843;-50
2021/11/11 12:59:14;;;;;;;20.10;18.97;;;27.20;48.10;;;;;;5091232;28;20438;-54
2021/11/11 13:01:53;;;;;;;19.37;18.27;;;27.30;48.20;;;;;;5091553;28;20462;-51
2021/11/11 13:04:22;;;;;;;18.50;17.50;;;27.20;48.20;;;;;;5091387;28;20445;-48
2021/11/11 13:06:50;;;;;;;19.67;18.57;;;27.20;48.30;;;;;;5091421;28;20442;-49
2021/11/11 13:09:35;;;;;;;20.07;19.00;;;27.20;48.40;;;;;;5091148;28;20442;-50
2021/11/11 13:12:16;;;;;;;19.67;18.67;;;27.30;48.60;;;;;;5091380;28;20773;-48
2021/11/11 13:14:58;;;;;;;20.07;19.07;;;27.40;48.40;;;;;;5093231;28;20477;-47
2021/11/11 13:17:27;;;;;;;18.57;17.67;;;27.60;48.20;;;;;;5095349;28;20446;-54
2021/11/11 13:20:00;;;;;;;19.07;18.07;;;27.80;47.80;;;;;;5095158;28;20482;-47
2021/11/11 13:22:41;;;;;;;18.33;17.43;;;27.90;47.70;;;;;;5095417;28;20454;-45
2021/11/11 13:25:36;;;;;;;21.80;20.60;;;28.30;47.10;;;;;;5095415;28;20470;-50
2021/11/11 13:59:32;;;;;;;20.40;19.30;;;27.00;48.70;;;;;;5094553;28;20518;-47
2021/11/11 15:16:36;;;;;;;18.63;17.73;;;28.20;47.30;;;;;;5094585;28;20548;-52